Hatsu Ethic — VQFS4 — position and weather

sailwx.info

Track history (hours):
 
Tides and Currents Weather Stations Pressure Air Temp Water Temp Dewpoint Dewpoint Depression Visibility Wind Speed Wind Dir Waves Ship Positions

Hatsu Ethic

Last reported at 2015-Aug-31 13:33 UTC. Time now 2015-Sep-01 01:57 UTC.
Position N 22°23' E 114°34'.

Type: Ship (hazmat cat D). MMSI: 235603000.

Date/timePositionNaut miles runAvg speedWind from/ knotsBaromVisibWave heightAir tempDewpointWater temp
2015-Aug-31 13:33N 22°23' E 114°34'6 0.2
2015-Aug-30 07:24N 22°23' E 114°28'1113.3
2015-Aug-30 06:33N 22°12' E 114°25'19 9.5
2015-Aug-30 04:33N 22°18' E 114°06'3 2.7
2015-Aug-30 03:33N 22°20' E 114°08'0 0.0
2015-Aug-30 02:27N 22°20' E 114°08'0 0.1
2015-Aug-30 01:33N 22°20' E 114°08'0 0.1
2015-Aug-30 00:30N 22°20' E 114°08'0 0.1
2015-Aug-29 23:30N 22°20' E 114°08'0 0.1
2015-Aug-29 22:30N 22°20' E 114°08'0 0.1
2015-Aug-29 21:33N 22°20' E 114°08'0 0.0
2015-Aug-29 20:33N 22°20' E 114°08'0 0.1
2015-Aug-29 19:33N 22°20' E 114°08'0 0.0
2015-Aug-29 18:33N 22°20' E 114°08'7 5.2
2015-Aug-29 17:14N 22°14' E 114°10'6 9.1
2015-Aug-29 16:32N 22°09' E 114°14'1111.6
2015-Aug-29 15:33N 22°08' E 114°26'  
2015-Aug-23 05:13N 33°56' E 134°56'1117.2
2015-Aug-23 04:33N 34°07' E 134°57'1312.6
2015-Aug-23 03:34N 34°20' E 134°59'1717.2
2015-Aug-23 02:34N 34°32' E 135°14'1110.6
2015-Aug-23 01:32N 34°39' E 135°24'0 0.1
2015-Aug-23 00:32N 34°39' E 135°24'0 0.0
2015-Aug-22 23:32N 34°39' E 135°24'0 0.0
2015-Aug-22 22:33N 34°39' E 135°24'0 0.0
2015-Aug-22 21:33N 34°39' E 135°24'0 0.0
2015-Aug-22 20:33N 34°39' E 135°24'0 0.0
2015-Aug-22 19:33N 34°39' E 135°24'0 0.0
2015-Aug-22 18:33N 34°39' E 135°24'0 0.0
2015-Aug-22 17:33N 34°39' E 135°24'0 0.0
2015-Aug-22 16:33N 34°39' E 135°24'0 0.0
2015-Aug-22 15:33N 34°39' E 135°24'0 0.0
2015-Aug-22 14:34N 34°39' E 135°24'0 0.0
2015-Aug-22 13:33N 34°39' E 135°24'0 0.0
2015-Aug-22 12:33N 34°39' E 135°24'0 0.0
2015-Aug-22 11:26N 34°39' E 135°24'3 3.3
2015-Aug-22 10:33N 34°37' E 135°21'1717.0
2015-Aug-22 09:33N 34°25' E 135°07'1414.2
2015-Aug-22 08:33N 34°12' E 134°60'1514.5
2015-Aug-22 07:32N 33°57' E 134°59'23316.2
2015-Aug-21 17:05N 34°47' E 139°35'1018.6
2015-Aug-21 16:33N 34°57' E 139°40'1615.7
2015-Aug-21 15:33N 35°11' E 139°46'1212.3
2015-Aug-21 14:33N 35°23' E 139°42'1211.9
2015-Aug-21 13:34N 35°34' E 139°48'  
Track history (hours):
 
Tides and Currents Weather Stations Pressure Air Temp Water Temp Dewpoint Dewpoint Depression Visibility Wind Speed Wind Dir Waves Ship Positions

Hatsu Ethic

Last reported at 2015-Aug-31 13:33 UTC. Time now 2015-Sep-01 01:57 UTC.
Position N 22°23' E 114°34'.

Type: Ship (hazmat cat D). MMSI: 235603000.

Date/timePositionNaut miles runAvg speedWind from/ knotsBaromVisibWave heightAir tempDewpointWater temp
2015-Aug-31 13:33N 22°23' E 114°34'6 0.2
2015-Aug-30 07:24N 22°23' E 114°28'1113.3
2015-Aug-30 06:33N 22°12' E 114°25'19 9.5
2015-Aug-30 04:33N 22°18' E 114°06'3 2.7
2015-Aug-30 03:33N 22°20' E 114°08'0 0.0
2015-Aug-30 02:27N 22°20' E 114°08'0 0.1
2015-Aug-30 01:33N 22°20' E 114°08'0 0.1
2015-Aug-30 00:30N 22°20' E 114°08'0 0.1
2015-Aug-29 23:30N 22°20' E 114°08'0 0.1
2015-Aug-29 22:30N 22°20' E 114°08'0 0.1
2015-Aug-29 21:33N 22°20' E 114°08'0 0.0
2015-Aug-29 20:33N 22°20' E 114°08'0 0.1
2015-Aug-29 19:33N 22°20' E 114°08'0 0.0
2015-Aug-29 18:33N 22°20' E 114°08'7 5.2
2015-Aug-29 17:14N 22°14' E 114°10'6 9.1
2015-Aug-29 16:32N 22°09' E 114°14'1111.6
2015-Aug-29 15:33N 22°08' E 114°26'  
2015-Aug-23 05:13N 33°56' E 134°56'1117.2
2015-Aug-23 04:33N 34°07' E 134°57'1312.6
2015-Aug-23 03:34N 34°20' E 134°59'1717.2
2015-Aug-23 02:34N 34°32' E 135°14'1110.6
2015-Aug-23 01:32N 34°39' E 135°24'0 0.1
2015-Aug-23 00:32N 34°39' E 135°24'0 0.0
2015-Aug-22 23:32N 34°39' E 135°24'0 0.0
2015-Aug-22 22:33N 34°39' E 135°24'0 0.0
2015-Aug-22 21:33N 34°39' E 135°24'0 0.0
2015-Aug-22 20:33N 34°39' E 135°24'0 0.0
2015-Aug-22 19:33N 34°39' E 135°24'0 0.0
2015-Aug-22 18:33N 34°39' E 135°24'0 0.0
2015-Aug-22 17:33N 34°39' E 135°24'0 0.0
2015-Aug-22 16:33N 34°39' E 135°24'0 0.0
2015-Aug-22 15:33N 34°39' E 135°24'0 0.0
2015-Aug-22 14:34N 34°39' E 135°24'0 0.0
2015-Aug-22 13:33N 34°39' E 135°24'0 0.0
2015-Aug-22 12:33N 34°39' E 135°24'0 0.0
2015-Aug-22 11:26N 34°39' E 135°24'3 3.3
2015-Aug-22 10:33N 34°37' E 135°21'1717.0
2015-Aug-22 09:33N 34°25' E 135°07'1414.2
2015-Aug-22 08:33N 34°12' E 134°60'1514.5
2015-Aug-22 07:32N 33°57' E 134°59'23316.2
2015-Aug-21 17:05N 34°47' E 139°35'1018.6
2015-Aug-21 16:33N 34°57' E 139°40'1615.7
2015-Aug-21 15:33N 35°11' E 139°46'1212.3
2015-Aug-21 14:33N 35°23' E 139°42'1211.9
2015-Aug-21 13:34N 35°34' E 139°48'  

Dump ship's entire track history